Time;durP1;ratioP1;P1;durP2;ratioP2;P2;SDS_P1;SDS_P2;PMS_P1;PMS_P2;Temp;Humidity;BMP_temperature;BMP_pressure;BME280_temperature;BME280_humidity;BME280_pressure;Samples;Min_cycle;Max_cycle;Signal;HPM_P1;HPM_P2
2023/04/28 00:00:49;;;;;;;11.07;9.30;;;8.20;99.90;;;;;;5045234;28;20470;-53
2023/04/28 00:03:15;;;;;;;10.43;9.30;;;8.10;1.00;;;;;;5045549;28;20810;-53
2023/04/28 00:05:41;;;;;;;9.93;8.93;;;8.10;1.00;;;;;;5049854;28;20952;-55
2023/04/28 00:08:07;;;;;;;12.47;9.17;;;8.00;1.00;;;;;;5045220;28;20506;-54
2023/04/28 00:10:33;;;;;;;11.17;9.33;;;8.00;1.00;;;;;;5045759;28;20199;-55
2023/04/28 00:12:58;;;;;;;13.03;10.50;;;8.00;1.00;;;;;;5042639;28;20454;-51
2023/04/28 00:15:24;;;;;;;11.10;10.00;;;8.10;1.00;;;;;;5043046;28;20188;-53
2023/04/28 00:17:50;;;;;;;9.67;8.77;;;8.00;1.00;;;;;;5043621;28;20188;-52
2023/04/28 00:20:15;;;;;;;12.67;11.40;;;8.00;1.00;;;;;;5043484;28;20330;-55
2023/04/28 00:22:41;;;;;;;13.20;10.10;;;8.00;1.00;;;;;;5046019;28;20662;-54
2023/04/28 00:25:07;;;;;;;11.80;9.70;;;7.90;1.00;;;;;;5043471;28;20503;-53
2023/04/28 00:27:34;;;;;;;10.63;8.40;;;7.90;1.00;;;;;;5046174;28;20185;-53
2023/04/28 00:30:00;;;;;;;10.03;9.10;;;7.90;1.00;;;;;;5046407;28;20972;-56
2023/04/28 00:32:25;;;;;;;10.27;9.20;;;7.90;1.00;;;;;;5048186;28;20443;-52
2023/04/28 00:34:52;;;;;;;9.93;8.93;;;7.90;1.00;;;;;;5042876;28;20203;-52
2023/04/28 00:37:20;;;;;;;10.37;9.23;;;7.90;1.00;;;;;;5045823;28;20326;-52
2023/04/28 00:39:46;;;;;;;11.47;9.23;;;7.80;1.00;;;;;;5044441;28;20454;-53
2023/04/28 00:42:13;;;;;;;10.03;9.13;;;7.80;1.00;;;;;;5043537;28;20454;-52
2023/04/28 00:44:40;;;;;;;12.70;10.40;;;7.80;1.00;;;;;;5043765;28;20188;-51
2023/04/28 00:47:07;;;;;;;11.00;9.90;;;7.80;1.00;;;;;;5047768;28;20442;-54
2023/04/28 00:49:34;;;;;;;10.60;9.50;;;7.70;1.00;;;;;;5056084;28;20880;-55
2023/04/28 00:52:03;;;;;;;12.47;9.70;;;7.70;1.00;;;;;;5048545;28;20453;-55
2023/04/28 00:54:29;;;;;;;12.20;9.97;;;7.60;1.00;;;;;;5058753;28;20442;-54
2023/04/28 00:56:56;;;;;;;14.03;10.83;;;7.60;1.00;;;;;;5049270;28;20494;-53
2023/04/28 00:59:21;;;;;;;11.83;10.00;;;7.60;1.00;;;;;;5046577;28;20189;-54
2023/04/28 01:01:48;;;;;;;14.33;10.13;;;7.60;1.00;;;;;;5044384;28;20501;-55
2023/04/28 01:04:18;;;;;;;13.87;11.50;;;7.60;1.00;;;;;;5045184;28;20185;-54
2023/04/28 01:06:46;;;;;;;14.77;10.47;;;7.50;1.00;;;;;;5045685;28;20443;-51
2023/04/28 01:09:11;;;;;;;16.50;11.20;;;7.50;1.00;;;;;;5047361;28;20982;-55
2023/04/28 01:11:37;;;;;;;13.77;12.00;;;7.40;1.00;;;;;;5047153;28;20446;-54
2023/04/28 01:14:03;;;;;;;12.30;10.90;;;7.40;1.00;;;;;;5045306;28;20195;-54
2023/04/28 01:16:31;;;;;;;15.33;11.77;;;7.40;1.00;;;;;;5049103;28;20826;-53
2023/04/28 01:18:57;;;;;;;14.00;10.77;;;7.40;1.00;;;;;;5050115;28;20474;-54
2023/04/28 01:21:33;;;;;;;11.23;9.90;;;7.50;1.00;;;;;;5070969;28;20497;-52
2023/04/28 01:23:59;;;;;;;12.30;10.13;;;7.50;1.00;;;;;;5047345;28;20454;-53
2023/04/28 01:26:25;;;;;;;12.70;10.33;;;7.50;1.00;;;;;;5055281;28;20447;-54
2023/04/28 01:28:51;;;;;;;11.63;9.40;;;7.40;1.00;;;;;;5050539;28;20998;-52
2023/04/28 01:31:17;;;;;;;13.50;10.67;;;7.40;1.00;;;;;;5049627;28;20214;-56
2023/04/28 01:33:42;;;;;;;10.57;9.33;;;7.40;1.00;;;;;;5050055;28;20534;-55
2023/04/28 01:36:08;;;;;;;11.80;10.70;;;7.50;1.00;;;;;;5047298;28;20218;-55
2023/04/28 01:38:34;;;;;;;13.90;9.50;;;7.50;1.00;;;;;;5051110;28;20192;-51
2023/04/28 01:41:02;;;;;;;12.50;11.30;;;7.40;1.00;;;;;;5048038;28;20212;-53
2023/04/28 01:43:28;;;;;;;11.93;9.97;;;7.40;1.00;;;;;;5049448;28;20654;-54
2023/04/28 01:45:53;;;;;;;11.30;10.10;;;7.40;1.00;;;;;;5046780;28;20495;-54
2023/04/28 01:48:19;;;;;;;10.83;9.83;;;7.40;1.00;;;;;;5049941;28;20478;-55
2023/04/28 01:50:45;;;;;;;11.63;10.40;;;7.40;1.00;;;;;;5050537;28;20222;-55
2023/04/28 01:53:10;;;;;;;13.00;10.20;;;7.40;1.00;;;;;;5044534;28;20721;-54
2023/04/28 01:55:37;;;;;;;13.10;10.47;;;7.40;1.00;;;;;;5049458;28;20240;-54
2023/04/28 01:58:03;;;;;;;11.33;10.13;;;7.40;1.00;;;;;;5047425;28;20693;-52
2023/04/28 02:00:29;;;;;;;12.60;10.20;;;7.30;1.00;;;;;;5045892;28;20471;-54
2023/04/28 02:02:54;;;;;;;13.77;10.57;;;7.40;1.00;;;;;;5048313;28;20275;-52
2023/04/28 02:05:20;;;;;;;11.03;9.73;;;7.40;1.00;;;;;;5046320;28;20492;-51
2023/04/28 02:07:46;;;;;;;10.97;9.30;;;7.50;1.00;;;;;;5049486;28;20650;-53
2023/04/28 02:10:12;;;;;;;11.23;9.30;;;7.50;1.00;;;;;;5052031;28;20189;-55
2023/04/28 02:12:37;;;;;;;10.33;9.33;;;7.40;1.00;;;;;;5047309;28;20275;-56
2023/04/28 02:15:03;;;;;;;14.80;10.70;;;7.40;1.00;;;;;;5042000;28;20459;-54
2023/04/28 02:17:30;;;;;;;12.33;10.50;;;7.40;1.00;;;;;;5048944;28;20551;-56
2023/04/28 02:19:56;;;;;;;12.07;10.73;;;7.40;1.00;;;;;;5045083;28;20451;-54
2023/04/28 02:22:22;;;;;;;13.30;11.77;;;7.40;1.00;;;;;;5048650;28;20525;-52
2023/04/28 02:24:48;;;;;;;13.70;10.40;;;7.30;1.00;;;;;;5045834;28;20447;-52
2023/04/28 02:27:13;;;;;;;12.50;11.10;;;7.30;1.00;;;;;;5042975;28;21094;-52
2023/04/28 02:29:39;;;;;;;12.23;10.83;;;7.30;1.00;;;;;;5046438;28;20447;-51
2023/04/28 02:32:05;;;;;;;12.40;11.10;;;7.30;1.00;;;;;;5044259;28;20196;-53
2023/04/28 02:34:31;;;;;;;11.37;9.87;;;7.30;1.00;;;;;;5043210;28;20518;-54
2023/04/28 02:36:56;;;;;;;11.73;9.50;;;7.30;1.00;;;;;;5045263;28;20713;-53
2023/04/28 02:39:25;;;;;;;11.57;10.10;;;7.20;1.00;;;;;;5046278;28;20191;-54
2023/04/28 02:41:53;;;;;;;17.10;10.57;;;7.20;1.00;;;;;;5043296;28;20578;-55
2023/04/28 02:44:20;;;;;;;10.30;9.40;;;7.20;1.00;;;;;;5047966;28;20442;-53
2023/04/28 02:46:45;;;;;;;11.60;9.30;;;7.10;1.00;;;;;;5046604;28;20462;-56
2023/04/28 02:49:11;;;;;;;11.27;10.10;;;7.20;1.00;;;;;;5047532;28;20451;-56
2023/04/28 02:51:37;;;;;;;15.27;9.00;;;7.20;1.00;;;;;;5046015;28;20275;-55
2023/04/28 02:54:03;;;;;;;10.80;9.73;;;7.20;1.00;;;;;;5048146;28;20541;-55
2023/04/28 02:56:29;;;;;;;11.13;9.60;;;7.20;1.00;;;;;;5060724;28;20240;-52
2023/04/28 02:58:55;;;;;;;11.80;9.37;;;7.30;1.00;;;;;;5046552;28;20450;-53
2023/04/28 03:01:22;;;;;;;10.43;9.30;;;7.40;1.00;;;;;;5045385;28;20840;-55
2023/04/28 03:03:47;;;;;;;11.90;9.80;;;7.40;1.00;;;;;;5047128;28;20443;-54
2023/04/28 03:06:13;;;;;;;11.00;9.67;;;7.40;1.00;;;;;;5047804;28;20450;-53
2023/04/28 03:08:38;;;;;;;10.70;9.60;;;7.50;1.00;;;;;;5048976;28;20203;-55
2023/04/28 03:11:04;;;;;;;10.90;9.80;;;7.50;1.00;;;;;;5047037;28;20191;-55
2023/04/28 03:13:30;;;;;;;11.90;9.90;;;7.50;1.00;;;;;;5044290;28;20215;-57
2023/04/28 03:15:56;;;;;;;10.10;8.60;;;7.50;1.00;;;;;;5046429;28;21026;-55
2023/04/28 03:18:22;;;;;;;14.07;9.17;;;7.50;1.00;;;;;;5046182;28;20177;-54
2023/04/28 03:20:48;;;;;;;11.00;9.90;;;7.50;1.00;;;;;;5049701;28;20650;-54
2023/04/28 03:23:13;;;;;;;10.43;9.53;;;7.50;1.00;;;;;;5047947;28;20900;-54
2023/04/28 03:25:39;;;;;;;10.80;9.80;;;7.50;1.00;;;;;;5045345;28;20530;-53
2023/04/28 03:28:05;;;;;;;10.30;9.27;;;7.50;1.00;;;;;;5047705;28;20193;-53
2023/04/28 03:30:30;;;;;;;10.47;9.33;;;7.50;1.00;;;;;;5056753;28;20219;-53
2023/04/28 03:32:56;;;;;;;10.80;9.80;;;7.50;1.00;;;;;;5052717;28;20191;-53
2023/04/28 03:35:22;;;;;;;12.70;10.47;;;7.50;1.00;;;;;;5047457;28;20192;-53
2023/04/28 03:37:48;;;;;;;12.33;11.13;;;7.40;1.00;;;;;;5045734;28;20814;-54
2023/04/28 03:40:14;;;;;;;13.60;9.80;;;7.40;1.00;;;;;;5053144;28;20212;-54
2023/04/28 03:42:40;;;;;;;11.37;10.20;;;7.30;1.00;;;;;;5044443;28;20553;-53
2023/04/28 03:45:06;;;;;;;12.63;10.27;;;7.20;1.00;;;;;;5042505;28;20188;-54
2023/04/28 03:47:32;;;;;;;12.77;10.00;;;7.40;1.00;;;;;;5044530;28;20547;-56
2023/04/28 03:49:58;;;;;;;11.37;9.70;;;7.40;1.00;;;;;;5046710;28;20435;-54
2023/04/28 03:52:24;;;;;;;10.20;9.20;;;7.40;1.00;;;;;;5047369;28;20435;-55
2023/04/28 03:54:50;;;;;;;12.63;11.17;;;7.30;1.00;;;;;;5050747;28;20231;-53
2023/04/28 03:57:16;;;;;;;12.50;9.70;;;7.40;1.00;;;;;;5045088;28;20503;-54
2023/04/28 03:59:41;;;;;;;10.40;9.33;;;7.50;1.00;;;;;;5046731;28;20643;-53
2023/04/28 04:02:07;;;;;;;11.13;9.90;;;7.50;1.00;;;;;;5045499;28;20211;-54
2023/04/28 04:04:33;;;;;;;12.80;10.63;;;7.50;1.00;;;;;;5046766;28;20654;-53
2023/04/28 04:06:59;;;;;;;12.57;9.43;;;7.50;1.00;;;;;;5042562;28;20453;-52
2023/04/28 04:09:25;;;;;;;10.57;9.57;;;7.70;1.00;;;;;;5043775;28;20572;-54
2023/04/28 04:11:50;;;;;;;12.77;9.80;;;7.70;1.00;;;;;;5046725;28;20447;-55
2023/04/28 04:14:16;;;;;;;10.83;9.30;;;7.80;1.00;;;;;;5043940;28;20446;-56
2023/04/28 04:16:42;;;;;;;10.47;9.43;;;7.90;1.00;;;;;;5044246;28;20188;-54
2023/04/28 04:19:08;;;;;;;12.60;9.10;;;8.00;1.00;;;;;;5044235;28;20502;-54
2023/04/28 04:21:33;;;;;;;11.90;9.90;;;8.00;1.00;;;;;;5044163;28;20307;-55
2023/04/28 04:24:00;;;;;;;11.50;9.00;;;8.00;1.00;;;;;;5046913;28;20189;-55
2023/04/28 04:26:25;;;;;;;10.53;9.40;;;8.20;1.00;;;;;;5048131;28;20280;-57
2023/04/28 04:28:51;;;;;;;15.10;11.00;;;8.20;1.00;;;;;;5048682;28;20446;-56
2023/04/28 04:31:18;;;;;;;10.90;9.80;;;8.30;1.00;;;;;;5050124;28;20192;-54
2023/04/28 04:33:44;;;;;;;14.50;10.63;;;8.30;1.00;;;;;;5046470;28;20212;-53
2023/04/28 04:36:09;;;;;;;10.73;9.63;;;8.40;1.00;;;;;;5048261;28;20486;-54
2023/04/28 04:38:35;;;;;;;11.47;10.00;;;8.60;1.00;;;;;;5047685;28;20443;-54
2023/04/28 04:41:01;;;;;;;10.67;9.53;;;8.60;1.00;;;;;;5052259;28;20241;-52
2023/04/28 04:43:26;;;;;;;12.53;10.30;;;8.60;1.00;;;;;;5047643;28;20211;-55
2023/04/28 04:45:52;;;;;;;12.60;10.10;;;8.80;1.00;;;;;;5051230;28;20196;-52
2023/04/28 04:48:18;;;;;;;10.03;8.40;;;8.80;1.00;;;;;;5045938;28;20610;-52
2023/04/28 04:50:44;;;;;;;11.53;9.40;;;9.00;1.00;;;;;;5051249;28;20775;-55
2023/04/28 04:53:09;;;;;;;15.57;9.90;;;9.00;1.00;;;;;;5048406;28;20185;-53
2023/04/28 04:55:35;;;;;;;10.10;9.00;;;9.10;99.90;;;;;;5046962;28;20235;-54
2023/04/28 04:58:01;;;;;;;10.60;9.60;;;9.20;99.90;;;;;;5047903;28;20239;-55
2023/04/28 05:00:27;;;;;;;13.97;9.80;;;9.20;99.90;;;;;;5045861;28;20204;-52
2023/04/28 05:02:52;;;;;;;14.90;9.20;;;9.30;99.90;;;;;;5050310;28;20188;-51
2023/04/28 05:05:18;;;;;;;14.63;9.60;;;9.50;99.90;;;;;;5041832;28;20193;-56
2023/04/28 05:07:43;;;;;;;10.90;8.70;;;9.60;99.90;;;;;;5047233;28;20193;-55
2023/04/28 05:10:10;;;;;;;12.77;9.67;;;9.70;99.90;;;;;;5050133;28;20184;-55
2023/04/28 05:12:37;;;;;;;12.20;10.10;;;9.70;99.90;;;;;;5042870;28;20185;-54
2023/04/28 05:15:06;;;;;;;13.80;9.97;;;9.70;99.90;;;;;;5048407;28;20956;-55
2023/04/28 05:17:33;;;;;;;11.40;9.17;;;9.80;99.90;;;;;;5050178;28;20435;-54
2023/04/28 05:19:58;;;;;;;10.40;9.30;;;9.70;99.90;;;;;;5049738;28;20471;-55
2023/04/28 05:22:25;;;;;;;11.50;9.77;;;9.60;99.90;;;;;;5050328;28;20478;-52
2023/04/28 05:24:50;;;;;;;11.87;10.20;;;9.60;99.90;;;;;;5063810;28;20605;-57
2023/04/28 05:27:17;;;;;;;12.23;10.40;;;9.80;99.90;;;;;;5049740;28;20526;-55
2023/04/28 05:29:43;;;;;;;12.23;10.23;;;9.80;99.90;;;;;;5050110;28;20395;-55
2023/04/28 05:32:08;;;;;;;11.30;10.20;;;9.90;99.90;;;;;;5044940;28;20569;-52
2023/04/28 05:34:34;;;;;;;13.60;9.87;;;10.00;99.90;;;;;;5045544;28;20264;-57
2023/04/28 05:37:00;;;;;;;12.47;9.73;;;10.20;99.90;;;;;;5046389;28;20201;-54
2023/04/28 05:39:25;;;;;;;12.00;9.83;;;10.30;99.90;;;;;;5045879;28;20557;-54
2023/04/28 05:41:51;;;;;;;11.70;9.77;;;10.50;99.90;;;;;;5047338;28;20247;-53
2023/04/28 05:44:17;;;;;;;14.33;10.20;;;10.60;99.90;;;;;;5053229;28;20201;-52
2023/04/28 05:46:42;;;;;;;11.73;10.57;;;10.80;99.90;;;;;;5049285;28;20234;-55
2023/04/28 05:49:09;;;;;;;13.00;10.13;;;10.90;99.90;;;;;;5047429;28;20192;-55
2023/04/28 05:51:34;;;;;;;11.07;9.57;;;10.90;99.90;;;;;;5046989;28;20564;-54
2023/04/28 05:54:00;;;;;;;12.60;9.60;;;11.00;99.90;;;;;;5051560;28;20470;-56
2023/04/28 05:56:26;;;;;;;13.53;9.13;;;11.00;99.90;;;;;;5049061;28;20228;-54
2023/04/28 05:58:52;;;;;;;11.47;8.33;;;10.90;99.90;;;;;;5044818;28;20896;-54
2023/04/28 06:01:17;;;;;;;9.80;8.47;;;11.00;99.90;;;;;;5054407;28;20215;-56
2023/04/28 06:03:44;;;;;;;13.93;8.43;;;11.00;99.90;;;;;;5043041;28;20501;-53
2023/04/28 06:06:10;;;;;;;11.13;8.60;;;11.10;99.90;;;;;;5042582;28;20184;-54
2023/04/28 06:08:36;;;;;;;11.73;8.47;;;11.20;99.90;;;;;;5046791;28;20566;-53
2023/04/28 06:11:01;;;;;;;11.10;7.67;;;11.30;99.90;;;;;;5047135;28;20525;-54
2023/04/28 06:13:27;;;;;;;11.50;7.40;;;11.50;99.90;;;;;;5039661;28;20778;-54
2023/04/28 06:15:52;;;;;;;10.17;7.40;;;11.90;99.90;;;;;;5046724;28;20196;-55
2023/04/28 06:18:18;;;;;;;15.87;7.50;;;12.30;99.90;;;;;;5045635;28;20238;-58
2023/04/28 06:20:44;;;;;;;10.27;8.20;;;12.70;99.90;;;;;;5044922;28;20212;-54
2023/04/28 06:23:09;;;;;;;11.03;7.40;;;13.10;99.90;;;;;;5047480;28;20185;-53
2023/04/28 06:25:35;;;;;;;12.13;8.50;;;13.40;99.90;;;;;;5047548;28;20272;-55
2023/04/28 06:28:02;;;;;;;12.20;8.07;;;13.80;99.90;;;;;;5044169;28;20177;-52
2023/04/28 06:30:27;;;;;;;10.40;7.43;;;14.00;99.90;;;;;;5042837;28;20438;-53
2023/04/28 06:32:54;;;;;;;8.57;7.67;;;14.10;99.90;;;;;;5043100;28;20455;-54
2023/04/28 06:35:21;;;;;;;10.37;6.87;;;14.20;99.90;;;;;;5046745;28;20192;-55
2023/04/28 06:37:47;;;;;;;13.50;7.00;;;14.10;99.90;;;;;;5044527;28;20848;-55
2023/04/28 06:40:12;;;;;;;10.93;7.90;;;14.10;99.90;;;;;;5046060;28;20455;-52
2023/04/28 06:42:38;;;;;;;9.60;7.37;;;14.20;99.90;;;;;;5045752;28;20272;-54
2023/04/28 06:45:04;;;;;;;11.80;7.00;;;14.30;99.90;;;;;;5049171;28;20177;-53
2023/04/28 06:47:30;;;;;;;9.07;7.00;;;14.20;99.90;;;;;;5050552;28;20180;-54
2023/04/28 06:49:56;;;;;;;9.00;7.30;;;14.20;99.90;;;;;;5050492;28;20938;-52
2023/04/28 06:52:21;;;;;;;8.50;6.83;;;14.00;99.90;;;;;;5045265;28;20554;-53
2023/04/28 06:54:48;;;;;;;12.43;7.20;;;13.80;99.90;;;;;;5048401;28;20445;-52
2023/04/28 06:57:14;;;;;;;8.00;7.30;;;13.70;99.90;;;;;;5047328;28;20303;-54
2023/04/28 06:59:42;;;;;;;8.60;6.97;;;13.70;99.90;;;;;;5045720;28;20449;-54
2023/04/28 07:02:09;;;;;;;11.67;6.93;;;13.60;99.90;;;;;;5043228;28;20216;-53
2023/04/28 07:04:35;;;;;;;8.63;7.07;;;13.60;99.90;;;;;;5044544;28;20772;-55
2023/04/28 07:07:00;;;;;;;9.50;6.80;;;13.80;99.90;;;;;;5049171;28;20526;-53
2023/04/28 07:09:26;;;;;;;10.93;7.57;;;14.00;99.90;;;;;;5042782;28;20850;-53
2023/04/28 07:11:52;;;;;;;14.70;7.87;;;14.20;99.90;;;;;;5041456;28;20198;-55
2023/04/28 07:14:17;;;;;;;9.80;7.20;;;14.30;99.90;;;;;;5042645;28;20203;-54
2023/04/28 07:16:43;;;;;;;10.20;7.07;;;14.60;99.90;;;;;;5053721;28;20184;-54
2023/04/28 07:19:09;;;;;;;8.40;6.73;;;14.90;99.90;;;;;;5051960;28;20189;-54
2023/04/28 07:21:34;;;;;;;9.23;7.23;;;15.10;99.90;;;;;;5046611;28;20203;-53
2023/04/28 07:24:00;;;;;;;9.93;7.00;;;15.20;99.90;;;;;;5047274;28;20188;-54
2023/04/28 07:26:26;;;;;;;9.90;7.70;;;14.90;99.90;;;;;;5045345;28;21066;-54
2023/04/28 07:28:52;;;;;;;9.13;6.83;;;14.90;99.90;;;;;;5061605;28;20539;-54
2023/04/28 07:31:17;;;;;;;6.90;6.10;;;15.00;99.90;;;;;;5040881;28;20188;-56
2023/04/28 07:33:43;;;;;;;10.43;7.00;;;15.00;99.90;;;;;;5045852;28;20263;-55
2023/04/28 07:36:09;;;;;;;8.80;6.47;;;15.10;99.90;;;;;;5059377;28;20217;-54
2023/04/28 07:38:35;;;;;;;11.70;7.90;;;15.20;99.90;;;;;;5042544;28;20247;-55
2023/04/28 07:41:02;;;;;;;12.20;7.20;;;15.10;99.90;;;;;;5042687;28;20466;-55
2023/04/28 07:43:28;;;;;;;9.53;6.97;;;15.20;99.90;;;;;;5048750;28;21063;-54
2023/04/28 07:45:54;;;;;;;10.13;6.90;;;15.20;99.90;;;;;;5043563;28;20447;-56
2023/04/28 07:48:19;;;;;;;7.40;6.50;;;15.30;99.90;;;;;;5043532;28;20771;-54
2023/04/28 07:50:45;;;;;;;8.60;6.73;;;15.60;99.90;;;;;;5046363;28;20279;-52
2023/04/28 07:53:11;;;;;;;7.87;6.33;;;15.70;99.90;;;;;;5043392;28;20270;-55
2023/04/28 07:55:36;;;;;;;16.80;7.73;;;15.90;99.90;;;;;;5040479;28;20274;-53
2023/04/28 07:58:02;;;;;;;11.57;7.00;;;15.80;99.90;;;;;;5051001;28;20242;-53
2023/04/28 08:00:28;;;;;;;13.73;7.27;;;15.70;99.90;;;;;;5052499;28;20257;-55
2023/04/28 08:02:53;;;;;;;7.20;6.03;;;15.70;99.90;;;;;;5053251;28;20442;-52
2023/04/28 08:05:19;;;;;;;8.00;6.37;;;15.70;99.90;;;;;;5050730;28;20188;-53
2023/04/28 08:07:45;;;;;;;9.57;6.93;;;15.80;99.90;;;;;;5053625;28;20276;-54
2023/04/28 08:10:11;;;;;;;10.20;7.07;;;15.70;99.90;;;;;;5047499;28;20195;-53
2023/04/28 08:12:37;;;;;;;9.90;6.53;;;15.70;99.90;;;;;;5049260;28;20550;-53
2023/04/28 08:15:03;;;;;;;8.37;6.73;;;15.80;99.90;;;;;;5048167;28;20598;-53
2023/04/28 08:17:29;;;;;;;10.40;5.93;;;15.90;99.90;;;;;;5049664;28;20443;-53
2023/04/28 08:19:54;;;;;;;7.00;6.00;;;16.00;99.90;;;;;;5047744;28;20670;-53
2023/04/28 08:22:20;;;;;;;6.90;5.80;;;16.30;99.90;;;;;;5048161;28;20214;-52
2023/04/28 08:24:46;;;;;;;7.27;6.27;;;16.40;99.90;;;;;;5051590;28;20184;-52
2023/04/28 08:27:11;;;;;;;9.53;6.73;;;16.30;99.90;;;;;;5047788;28;20185;-53
2023/04/28 08:29:38;;;;;;;12.07;6.70;;;16.40;99.90;;;;;;5050706;28;20181;-57
2023/04/28 08:32:05;;;;;;;7.03;6.43;;;16.80;99.90;;;;;;5044840;28;20618;-52
2023/04/28 08:34:34;;;;;;;10.63;7.27;;;17.10;99.90;;;;;;5044610;28;20447;-56
2023/04/28 08:37:00;;;;;;;7.70;6.23;;;17.20;99.90;;;;;;5048858;28;20780;-55
2023/04/28 08:39:26;;;;;;;8.53;6.23;;;17.30;99.90;;;;;;5047897;28;20451;-53
2023/04/28 08:41:52;;;;;;;8.67;5.97;;;17.40;99.90;;;;;;5049268;28;20466;-54
2023/04/28 08:44:18;;;;;;;7.33;6.07;;;17.40;99.90;;;;;;5047136;28;20185;-52
2023/04/28 08:46:45;;;;;;;8.30;6.17;;;17.40;99.90;;;;;;5054389;28;20991;-56
2023/04/28 08:49:16;;;;;;;11.50;6.70;;;17.40;99.90;;;;;;5057204;28;20542;-54
2023/04/28 08:51:49;;;;;;;8.50;5.73;;;17.40;99.90;;;;;;5049926;28;21056;-54
2023/04/28 08:54:16;;;;;;;9.03;6.10;;;17.40;99.90;;;;;;5050501;28;20944;-54
2023/04/28 08:56:45;;;;;;;6.57;5.87;;;17.50;99.90;;;;;;5050625;28;20550;-54
2023/04/28 08:59:14;;;;;;;8.37;6.30;;;17.80;99.90;;;;;;5047684;28;20446;-54
2023/04/28 09:01:40;;;;;;;10.03;6.70;;;18.00;99.90;;;;;;5051705;28;20480;-53
2023/04/28 09:04:06;;;;;;;8.30;6.17;;;18.20;99.90;;;;;;5051552;28;20450;-53
2023/04/28 09:06:37;;;;;;;7.53;5.60;;;18.50;99.90;;;;;;5048328;28;20197;-53
2023/04/28 09:09:23;;;;;;;9.23;6.63;;;18.50;99.90;;;;;;5065073;28;20180;-54
2023/04/28 09:12:03;;;;;;;8.20;6.00;;;18.30;99.90;;;;;;5048306;28;20454;-52
2023/04/28 09:14:34;;;;;;;9.97;6.03;;;18.20;99.90;;;;;;5048367;28;20467;-54
2023/04/28 09:17:08;;;;;;;7.67;5.63;;;18.10;99.90;;;;;;5041045;28;20512;-54
2023/04/28 09:19:35;;;;;;;11.97;5.83;;;18.30;99.90;;;;;;5055167;28;20447;-53
2023/04/28 09:22:02;;;;;;;6.87;4.93;;;18.40;99.90;;;;;;5051525;28;20536;-53
2023/04/28 09:24:29;;;;;;;7.63;5.97;;;18.40;99.90;;;;;;5048009;28;20783;-53
2023/04/28 09:26:55;;;;;;;6.17;5.60;;;18.50;99.90;;;;;;5063105;28;20452;-52
2023/04/28 09:29:20;;;;;;;7.80;6.10;;;18.70;99.90;;;;;;5060339;28;20528;-55
2023/04/28 09:31:46;;;;;;;6.37;5.17;;;18.80;99.90;;;;;;5063096;28;20503;-55
2023/04/28 09:34:12;;;;;;;6.27;5.27;;;18.90;99.90;;;;;;5051028;28;20184;-52
2023/04/28 09:36:37;;;;;;;8.90;5.53;;;18.80;99.90;;;;;;5051332;28;20646;-54
2023/04/28 09:39:03;;;;;;;6.13;4.90;;;18.90;99.90;;;;;;5049452;28;20203;-53
2023/04/28 09:41:37;;;;;;;7.20;5.30;;;18.90;99.90;;;;;;5051383;28;20208;-53
2023/04/28 09:44:32;;;;;;;10.90;5.83;;;18.90;99.90;;;;;;5047197;28;20185;-53
2023/04/28 09:46:58;;;;;;;7.00;4.57;;;18.90;99.90;;;;;;5036583;28;20546;-53
2023/04/28 09:49:23;;;;;;;7.63;4.53;;;19.00;99.90;;;;;;5049332;28;20843;-53
2023/04/28 09:51:49;;;;;;;5.90;4.60;;;18.80;99.90;;;;;;5057512;28;20184;-54
2023/04/28 09:54:15;;;;;;;7.50;4.53;;;18.60;99.90;;;;;;5048997;28;20226;-52
2023/04/28 09:56:42;;;;;;;5.17;4.67;;;18.40;99.90;;;;;;5044591;28;20670;-53
2023/04/28 09:59:09;;;;;;;7.97;4.97;;;18.30;99.90;;;;;;5053922;28;20451;-54
2023/04/28 10:01:39;;;;;;;7.57;3.97;;;18.40;99.90;;;;;;5045161;28;20510;-53
2023/04/28 10:04:06;;;;;;;8.10;4.20;;;18.40;99.90;;;;;;5048985;28;20435;-55
2023/04/28 10:06:37;;;;;;;7.60;4.33;;;18.60;99.90;;;;;;5048730;28;20960;-54
2023/04/28 10:09:04;;;;;;;4.90;4.40;;;18.70;99.90;;;;;;5048258;28;20824;-54
2023/04/28 10:11:32;;;;;;;5.97;4.83;;;18.70;99.90;;;;;;5045915;28;20508;-52
2023/04/28 10:13:58;;;;;;;5.53;4.67;;;18.80;99.90;;;;;;5059643;28;20449;-54
2023/04/28 10:16:28;;;;;;;6.47;4.50;;;19.00;99.90;;;;;;5043632;28;20830;-53
2023/04/28 10:18:56;;;;;;;7.13;4.37;;;19.10;99.90;;;;;;5067263;28;20183;-53
2023/04/28 10:21:23;;;;;;;6.63;4.43;;;19.30;99.90;;;;;;5057111;28;20518;-53
2023/04/28 10:24:02;;;;;;;10.77;4.90;;;19.30;99.90;;;;;;5040502;28;20446;-51
2023/04/28 10:26:50;;;;;;;7.90;4.43;;;19.40;99.90;;;;;;5050788;28;20475;-53
2023/04/28 10:29:21;;;;;;;8.30;4.33;;;19.40;99.90;;;;;;5041421;28;20562;-54
2023/04/28 10:32:25;;;;;;;5.40;4.30;;;19.40;99.90;;;;;;5045885;28;20459;-54
2023/04/28 10:34:53;;;;;;;7.27;4.80;;;19.20;99.90;;;;;;5036344;28;20797;-53
2023/04/28 10:37:19;;;;;;;4.33;3.93;;;19.20;99.90;;;;;;5047330;28;20462;-56
2023/04/28 10:40:23;;;;;;;7.47;4.07;;;19.20;99.90;;;;;;5045538;28;20602;-53
2023/04/28 10:42:55;;;;;;;6.03;4.27;;;19.00;99.90;;;;;;5041134;28;20461;-53
2023/04/28 10:45:54;;;;;;;6.00;5.03;;;18.70;99.90;;;;;;5050304;28;20481;-54
2023/04/28 10:48:46;;;;;;;5.17;4.67;;;18.60;99.90;;;;;;5045641;28;21005;-54
2023/04/28 10:51:15;;;;;;;7.63;4.47;;;18.40;99.90;;;;;;5045825;28;20439;-54
2023/04/28 10:53:43;;;;;;;5.50;4.93;;;18.20;99.90;;;;;;5048657;28;20518;-53
2023/04/28 10:56:11;;;;;;;7.70;5.40;;;18.00;99.90;;;;;;5052604;28;20474;-53
2023/04/28 10:58:41;;;;;;;6.10;5.43;;;17.70;99.90;;;;;;5048000;28;20533;-53
2023/04/28 11:01:23;;;;;;;5.93;4.67;;;17.40;99.90;;;;;;5032723;28;20498;-56
2023/04/28 11:04:06;;;;;;;6.73;5.70;;;17.10;99.90;;;;;;5025770;28;21788;-56
2023/04/28 11:06:36;;;;;;;7.37;4.97;;;16.80;99.90;;;;;;5046588;28;20908;-55
2023/04/28 11:09:14;;;;;;;6.23;4.90;;;16.50;99.90;;;;;;5027703;28;20444;-55
2023/04/28 11:11:58;;;;;;;18.90;6.07;;;16.40;99.90;;;;;;5027943;28;20773;-55
2023/04/28 11:14:24;;;;;;;8.77;5.60;;;16.30;99.90;;;;;;5046344;28;20500;-55
2023/04/28 11:17:05;;;;;;;8.20;5.33;;;16.30;99.90;;;;;;5035257;28;20825;-53
2023/04/28 11:19:32;;;;;;;6.43;5.80;;;16.40;99.90;;;;;;5028821;28;20263;-53
2023/04/28 11:22:03;;;;;;;7.47;5.80;;;16.50;99.90;;;;;;5033091;28;20473;-53
2023/04/28 11:24:30;;;;;;;6.30;5.60;;;16.60;99.90;;;;;;5055100;28;20423;-54
2023/04/28 11:26:56;;;;;;;7.07;5.57;;;16.50;99.90;;;;;;5054201;28;20446;-54
2023/04/28 11:29:32;;;;;;;9.17;6.20;;;16.60;99.90;;;;;;5051965;28;20995;-52
2023/04/28 11:31:58;;;;;;;8.77;7.03;;;16.60;99.90;;;;;;5048068;28;20442;-52
2023/04/28 11:34:24;;;;;;;9.10;6.50;;;16.70;99.90;;;;;;5049260;28;20457;-54
2023/04/28 11:36:50;;;;;;;10.60;7.83;;;16.70;99.90;;;;;;5046312;28;21367;-54
2023/04/28 11:39:16;;;;;;;9.87;7.00;;;16.60;99.90;;;;;;5042158;28;20550;-53
2023/04/28 11:41:43;;;;;;;9.83;5.93;;;16.60;99.90;;;;;;5047339;28;20558;-53
2023/04/28 11:44:10;;;;;;;8.00;6.73;;;16.60;99.90;;;;;;5046907;28;20184;-52
2023/04/28 11:46:56;;;;;;;8.37;6.90;;;16.70;99.90;;;;;;5061130;28;20438;-53
2023/04/28 11:49:45;;;;;;;9.20;7.37;;;16.60;99.90;;;;;;5040628;28;20797;-53
2023/04/28 11:52:11;;;;;;;8.30;6.90;;;16.80;99.90;;;;;;5050679;28;20454;-52
2023/04/28 11:54:37;;;;;;;8.67;7.20;;;16.90;99.90;;;;;;5044872;28;20770;-53
2023/04/28 11:57:04;;;;;;;7.90;7.17;;;17.00;99.90;;;;;;5046474;28;20562;-53
2023/04/28 11:59:34;;;;;;;8.63;7.73;;;17.00;99.90;;;;;;5049076;28;21015;-53
2023/04/28 12:02:01;;;;;;;8.90;8.00;;;17.10;99.90;;;;;;5046348;28;20485;-53
2023/04/28 12:04:28;;;;;;;10.63;7.30;;;17.10;99.90;;;;;;5047371;28;20443;-53
2023/04/28 12:06:59;;;;;;;9.90;7.80;;;17.30;99.90;;;;;;5053283;28;20453;-52
2023/04/28 12:09:25;;;;;;;8.90;6.97;;;17.90;99.90;;;;;;5046390;28;20446;-52
2023/04/28 12:12:01;;;;;;;7.27;6.57;;;18.40;99.90;;;;;;5047465;28;20445;-53
2023/04/28 12:14:26;;;;;;;7.33;5.73;;;18.70;99.90;;;;;;5047306;28;20666;-53
2023/04/28 12:16:52;;;;;;;6.80;6.10;;;18.90;99.90;;;;;;5043098;28;20447;-53
2023/04/28 12:19:19;;;;;;;9.17;5.80;;;19.10;99.90;;;;;;5046544;28;20195;-55
2023/04/28 12:22:02;;;;;;;5.93;5.30;;;19.30;99.90;;;;;;5045030;28;20257;-55
2023/04/28 12:24:28;;;;;;;6.37;5.77;;;19.40;99.90;;;;;;5045345;28;20450;-52
2023/04/28 12:26:53;;;;;;;7.00;5.93;;;19.40;99.90;;;;;;5045980;28;20538;-54
2023/04/28 12:29:39;;;;;;;7.33;5.93;;;19.50;99.90;;;;;;5063967;28;20187;-55
2023/04/28 12:32:09;;;;;;;7.37;6.50;;;19.60;99.90;;;;;;5044974;28;20677;-52
2023/04/28 12:34:36;;;;;;;7.57;6.00;;;19.60;99.90;;;;;;5043541;28;20447;-56
2023/04/28 12:37:04;;;;;;;7.90;6.30;;;19.60;99.90;;;;;;5045995;28;21020;-52
2023/04/28 12:39:32;;;;;;;7.10;6.27;;;19.60;99.90;;;;;;5045990;28;20449;-54
2023/04/28 12:42:03;;;;;;;8.30;6.83;;;19.30;99.90;;;;;;5056028;28;20471;-52
2023/04/28 12:44:36;;;;;;;11.30;7.07;;;19.10;99.90;;;;;;5053220;28;20447;-53
2023/04/28 12:47:11;;;;;;;8.50;7.03;;;18.90;99.90;;;;;;5063393;28;20936;-54
2023/04/28 12:49:37;;;;;;;8.60;7.70;;;18.70;99.90;;;;;;5048205;28;20456;-52